sensor_id;sensor_type;location;lat;lon;timestamp;P1;durP1;ratioP1;P2;durP2;ratioP2
70924;SDS011;58577;52.410;13.242;2022-09-17T00:00:00;7.22;;;2.88;;
70924;SDS011;58577;52.410;13.242;2022-09-17T00:02:50;4.75;;;2.25;;
70924;SDS011;58577;52.410;13.242;2022-09-17T00:05:39;7.75;;;2.60;;
70924;SDS011;58577;52.410;13.242;2022-09-17T00:08:25;3.15;;;2.33;;
70924;SDS011;58577;52.410;13.242;2022-09-17T00:11:13;5.55;;;2.30;;
70924;SDS011;58577;52.410;13.242;2022-09-17T00:14:01;5.65;;;2.47;;
70924;SDS011;58577;52.410;13.242;2022-09-17T00:16:49;5.88;;;2.28;;
70924;SDS011;58577;52.410;13.242;2022-09-17T00:19:34;4.88;;;2.45;;
70924;SDS011;58577;52.410;13.242;2022-09-17T00:22:20;7.53;;;2.38;;
70924;SDS011;58577;52.410;13.242;2022-09-17T00:25:06;7.25;;;2.38;;
70924;SDS011;58577;52.410;13.242;2022-09-17T00:27:53;5.40;;;2.30;;
70924;SDS011;58577;52.410;13.242;2022-09-17T00:30:42;7.43;;;2.72;;
70924;SDS011;58577;52.410;13.242;2022-09-17T00:33:29;4.22;;;2.13;;
70924;SDS011;58577;52.410;13.242;2022-09-17T00:36:15;10.02;;;2.83;;
70924;SDS011;58577;52.410;13.242;2022-09-17T00:39:01;5.20;;;2.60;;
70924;SDS011;58577;52.410;13.242;2022-09-17T00:41:48;5.82;;;2.50;;
70924;SDS011;58577;52.410;13.242;2022-09-17T00:44:38;10.30;;;3.00;;
70924;SDS011;58577;52.410;13.242;2022-09-17T00:47:30;8.60;;;2.25;;
70924;SDS011;58577;52.410;13.242;2022-09-17T00:50:26;9.50;;;2.63;;
70924;SDS011;58577;52.410;13.242;2022-09-17T00:53:16;8.45;;;2.80;;
70924;SDS011;58577;52.410;13.242;2022-09-17T00:56:07;10.07;;;2.50;;
70924;SDS011;58577;52.410;13.242;2022-09-17T00:58:59;8.30;;;3.08;;
70924;SDS011;58577;52.410;13.242;2022-09-17T01:01:46;7.78;;;2.70;;
70924;SDS011;58577;52.410;13.242;2022-09-17T01:04:32;5.63;;;2.58;;
70924;SDS011;58577;52.410;13.242;2022-09-17T01:07:26;4.60;;;2.65;;
70924;SDS011;58577;52.410;13.242;2022-09-17T01:10:37;11.32;;;3.20;;
70924;SDS011;58577;52.410;13.242;2022-09-17T01:16:45;7.40;;;2.90;;
70924;SDS011;58577;52.410;13.242;2022-09-17T01:20:17;6.90;;;2.55;;
70924;SDS011;58577;52.410;13.242;2022-09-17T01:23:28;6.88;;;2.42;;
70924;SDS011;58577;52.410;13.242;2022-09-17T01:32:49;9.00;;;2.67;;
70924;SDS011;58577;52.410;13.242;2022-09-17T01:45:03;8.00;;;2.60;;
70924;SDS011;58577;52.410;13.242;2022-09-17T01:47:55;7.03;;;2.63;;
70924;SDS011;58577;52.410;13.242;2022-09-17T01:53:51;4.13;;;2.50;;
70924;SDS011;58577;52.410;13.242;2022-09-17T01:56:44;4.90;;;2.60;;
70924;SDS011;58577;52.410;13.242;2022-09-17T01:59:36;4.43;;;2.17;;
70924;SDS011;58577;52.410;13.242;2022-09-17T02:02:29;7.68;;;2.67;;
70924;SDS011;58577;52.410;13.242;2022-09-17T02:05:21;10.95;;;2.83;;
70924;SDS011;58577;52.410;13.242;2022-09-17T02:08:16;6.78;;;2.63;;
70924;SDS011;58577;52.410;13.242;2022-09-17T02:11:06;12.65;;;2.83;;
70924;SDS011;58577;52.410;13.242;2022-09-17T02:14:07;8.23;;;2.78;;
70924;SDS011;58577;52.410;13.242;2022-09-17T02:17:02;7.85;;;2.80;;
70924;SDS011;58577;52.410;13.242;2022-09-17T02:19:53;11.60;;;3.25;;
70924;SDS011;58577;52.410;13.242;2022-09-17T02:22:41;8.27;;;2.67;;
70924;SDS011;58577;52.410;13.242;2022-09-17T02:25:35;11.63;;;3.05;;
70924;SDS011;58577;52.410;13.242;2022-09-17T02:28:30;8.05;;;2.92;;
70924;SDS011;58577;52.410;13.242;2022-09-17T02:31:19;13.95;;;3.10;;
70924;SDS011;58577;52.410;13.242;2022-09-17T02:34:05;6.03;;;2.88;;
70924;SDS011;58577;52.410;13.242;2022-09-17T02:36:51;7.55;;;2.85;;
70924;SDS011;58577;52.410;13.242;2022-09-17T02:39:38;5.85;;;2.80;;
70924;SDS011;58577;52.410;13.242;2022-09-17T02:51:49;10.13;;;3.60;;
70924;SDS011;58577;52.410;13.242;2022-09-17T02:58:03;7.05;;;2.53;;
70924;SDS011;58577;52.410;13.242;2022-09-17T03:00:58;5.30;;;2.92;;
70924;SDS011;58577;52.410;13.242;2022-09-17T03:03:51;10.15;;;2.75;;
70924;SDS011;58577;52.410;13.242;2022-09-17T03:06:40;6.40;;;2.60;;
70924;SDS011;58577;52.410;13.242;2022-09-17T03:09:26;13.25;;;3.60;;
70924;SDS011;58577;52.410;13.242;2022-09-17T03:12:12;6.57;;;2.95;;
70924;SDS011;58577;52.410;13.242;2022-09-17T03:14:58;8.98;;;2.65;;
70924;SDS011;58577;52.410;13.242;2022-09-17T03:17:44;8.35;;;2.75;;
70924;SDS011;58577;52.410;13.242;2022-09-17T03:20:30;6.38;;;2.70;;
70924;SDS011;58577;52.410;13.242;2022-09-17T03:23:15;7.25;;;2.85;;
70924;SDS011;58577;52.410;13.242;2022-09-17T03:26:01;9.75;;;2.80;;
70924;SDS011;58577;52.410;13.242;2022-09-17T03:28:47;12.32;;;4.20;;
70924;SDS011;58577;52.410;13.242;2022-09-17T03:31:32;11.35;;;4.18;;
70924;SDS011;58577;52.410;13.242;2022-09-17T03:34:18;8.52;;;3.20;;
70924;SDS011;58577;52.410;13.242;2022-09-17T03:37:05;5.43;;;2.42;;
70924;SDS011;58577;52.410;13.242;2022-09-17T03:39:51;6.82;;;2.97;;
70924;SDS011;58577;52.410;13.242;2022-09-17T03:42:36;9.57;;;3.05;;
70924;SDS011;58577;52.410;13.242;2022-09-17T03:45:22;6.55;;;2.85;;
70924;SDS011;58577;52.410;13.242;2022-09-17T03:48:08;4.85;;;2.50;;
70924;SDS011;58577;52.410;13.242;2022-09-17T03:50:54;10.85;;;2.60;;
70924;SDS011;58577;52.410;13.242;2022-09-17T03:53:39;7.97;;;3.10;;
70924;SDS011;58577;52.410;13.242;2022-09-17T03:56:25;8.50;;;4.00;;
70924;SDS011;58577;52.410;13.242;2022-09-17T03:59:11;13.02;;;3.40;;
70924;SDS011;58577;52.410;13.242;2022-09-17T04:01:57;9.60;;;3.00;;
70924;SDS011;58577;52.410;13.242;2022-09-17T04:04:43;13.38;;;3.10;;
70924;SDS011;58577;52.410;13.242;2022-09-17T04:07:29;7.38;;;2.85;;
70924;SDS011;58577;52.410;13.242;2022-09-17T04:10:15;10.40;;;2.80;;
70924;SDS011;58577;52.410;13.242;2022-09-17T04:13:00;7.88;;;2.75;;
70924;SDS011;58577;52.410;13.242;2022-09-17T04:15:46;9.23;;;3.13;;
70924;SDS011;58577;52.410;13.242;2022-09-17T04:18:33;10.35;;;3.00;;
70924;SDS011;58577;52.410;13.242;2022-09-17T04:21:19;6.55;;;2.92;;
70924;SDS011;58577;52.410;13.242;2022-09-17T04:24:05;11.50;;;3.70;;
70924;SDS011;58577;52.410;13.242;2022-09-17T04:26:50;11.45;;;4.95;;
70924;SDS011;58577;52.410;13.242;2022-09-17T04:29:36;9.07;;;3.50;;
70924;SDS011;58577;52.410;13.242;2022-09-17T04:32:22;7.43;;;3.00;;
70924;SDS011;58577;52.410;13.242;2022-09-17T04:35:08;8.63;;;2.83;;
70924;SDS011;58577;52.410;13.242;2022-09-17T04:37:54;8.63;;;2.75;;
70924;SDS011;58577;52.410;13.242;2022-09-17T04:40:41;10.65;;;2.97;;
70924;SDS011;58577;52.410;13.242;2022-09-17T04:43:27;8.05;;;2.88;;
70924;SDS011;58577;52.410;13.242;2022-09-17T04:46:12;6.05;;;2.70;;
70924;SDS011;58577;52.410;13.242;2022-09-17T04:48:58;11.38;;;3.05;;
70924;SDS011;58577;52.410;13.242;2022-09-17T04:51:44;7.57;;;2.78;;
70924;SDS011;58577;52.410;13.242;2022-09-17T04:54:30;7.88;;;2.63;;
70924;SDS011;58577;52.410;13.242;2022-09-17T04:57:15;10.35;;;2.78;;
70924;SDS011;58577;52.410;13.242;2022-09-17T05:00:02;7.72;;;2.83;;
70924;SDS011;58577;52.410;13.242;2022-09-17T05:02:50;6.03;;;2.75;;
70924;SDS011;58577;52.410;13.242;2022-09-17T05:05:38;10.65;;;4.03;;
70924;SDS011;58577;52.410;13.242;2022-09-17T05:08:24;11.98;;;3.08;;
70924;SDS011;58577;52.410;13.242;2022-09-17T05:11:09;10.18;;;2.83;;
70924;SDS011;58577;52.410;13.242;2022-09-17T05:13:55;7.35;;;2.70;;
70924;SDS011;58577;52.410;13.242;2022-09-17T05:16:41;8.52;;;2.60;;
70924;SDS011;58577;52.410;13.242;2022-09-17T05:19:27;10.23;;;3.40;;
70924;SDS011;58577;52.410;13.242;2022-09-17T05:22:12;8.00;;;2.80;;
70924;SDS011;58577;52.410;13.242;2022-09-17T05:24:58;9.70;;;3.05;;
70924;SDS011;58577;52.410;13.242;2022-09-17T05:27:44;6.55;;;2.90;;
70924;SDS011;58577;52.410;13.242;2022-09-17T05:30:31;6.30;;;2.65;;
70924;SDS011;58577;52.410;13.242;2022-09-17T05:33:17;9.05;;;3.28;;
70924;SDS011;58577;52.410;13.242;2022-09-17T05:36:04;6.18;;;2.50;;
70924;SDS011;58577;52.410;13.242;2022-09-17T05:38:51;7.18;;;3.00;;
70924;SDS011;58577;52.410;13.242;2022-09-17T05:41:37;11.90;;;3.20;;
70924;SDS011;58577;52.410;13.242;2022-09-17T05:44:22;6.15;;;2.40;;
70924;SDS011;58577;52.410;13.242;2022-09-17T05:47:10;5.10;;;2.45;;
70924;SDS011;58577;52.410;13.242;2022-09-17T05:49:56;12.10;;;3.20;;
70924;SDS011;58577;52.410;13.242;2022-09-17T05:52:41;10.40;;;2.85;;
70924;SDS011;58577;52.410;13.242;2022-09-17T05:55:28;10.88;;;3.30;;
70924;SDS011;58577;52.410;13.242;2022-09-17T05:58:15;10.18;;;3.80;;
70924;SDS011;58577;52.410;13.242;2022-09-17T06:01:03;13.98;;;3.65;;
70924;SDS011;58577;52.410;13.242;2022-09-17T06:03:48;15.15;;;4.05;;
70924;SDS011;58577;52.410;13.242;2022-09-17T06:06:34;14.18;;;3.70;;
70924;SDS011;58577;52.410;13.242;2022-09-17T06:09:22;16.77;;;3.55;;
70924;SDS011;58577;52.410;13.242;2022-09-17T06:12:07;13.30;;;3.42;;
70924;SDS011;58577;52.410;13.242;2022-09-17T06:14:53;15.10;;;4.00;;
70924;SDS011;58577;52.410;13.242;2022-09-17T06:17:39;20.25;;;4.03;;
70924;SDS011;58577;52.410;13.242;2022-09-17T06:20:26;13.13;;;3.40;;
70924;SDS011;58577;52.410;13.242;2022-09-17T06:23:12;13.68;;;3.50;;
70924;SDS011;58577;52.410;13.242;2022-09-17T06:25:57;15.85;;;3.53;;
70924;SDS011;58577;52.410;13.242;2022-09-17T06:28:44;13.35;;;3.88;;
70924;SDS011;58577;52.410;13.242;2022-09-17T06:31:30;15.63;;;3.80;;
70924;SDS011;58577;52.410;13.242;2022-09-17T06:34:15;12.45;;;3.72;;
70924;SDS011;58577;52.410;13.242;2022-09-17T06:37:02;15.45;;;4.35;;
70924;SDS011;58577;52.410;13.242;2022-09-17T06:39:47;15.95;;;4.30;;
70924;SDS011;58577;52.410;13.242;2022-09-17T06:42:33;15.48;;;3.67;;
70924;SDS011;58577;52.410;13.242;2022-09-17T06:45:19;13.15;;;3.83;;
70924;SDS011;58577;52.410;13.242;2022-09-17T06:48:05;16.08;;;4.63;;
70924;SDS011;58577;52.410;13.242;2022-09-17T06:50:51;18.75;;;4.47;;
70924;SDS011;58577;52.410;13.242;2022-09-17T06:53:39;14.45;;;3.67;;
70924;SDS011;58577;52.410;13.242;2022-09-17T06:56:25;12.73;;;3.75;;
70924;SDS011;58577;52.410;13.242;2022-09-17T06:59:11;12.07;;;3.17;;
70924;SDS011;58577;52.410;13.242;2022-09-17T07:01:56;12.90;;;4.25;;
70924;SDS011;58577;52.410;13.242;2022-09-17T07:04:42;18.77;;;3.88;;
70924;SDS011;58577;52.410;13.242;2022-09-17T07:07:28;15.10;;;3.40;;
70924;SDS011;58577;52.410;13.242;2022-09-17T07:10:14;13.32;;;3.03;;
70924;SDS011;58577;52.410;13.242;2022-09-17T07:13:00;13.05;;;3.60;;
70924;SDS011;58577;52.410;13.242;2022-09-17T07:15:55;10.80;;;2.97;;
70924;SDS011;58577;52.410;13.242;2022-09-17T07:18:43;10.68;;;3.60;;
70924;SDS011;58577;52.410;13.242;2022-09-17T07:21:28;13.98;;;3.42;;
70924;SDS011;58577;52.410;13.242;2022-09-17T07:24:14;12.00;;;2.95;;
70924;SDS011;58577;52.410;13.242;2022-09-17T07:27:00;15.10;;;3.13;;
70924;SDS011;58577;52.410;13.242;2022-09-17T07:29:46;8.63;;;2.80;;
70924;SDS011;58577;52.410;13.242;2022-09-17T07:32:32;13.85;;;3.78;;
70924;SDS011;58577;52.410;13.242;2022-09-17T07:35:17;12.10;;;3.80;;
70924;SDS011;58577;52.410;13.242;2022-09-17T07:38:03;11.73;;;3.95;;
70924;SDS011;58577;52.410;13.242;2022-09-17T07:43:50;10.83;;;4.60;;
70924;SDS011;58577;52.410;13.242;2022-09-17T07:46:38;8.65;;;2.75;;
70924;SDS011;58577;52.410;13.242;2022-09-17T07:49:23;9.98;;;3.00;;
70924;SDS011;58577;52.410;13.242;2022-09-17T07:52:10;13.55;;;2.72;;
70924;SDS011;58577;52.410;13.242;2022-09-17T07:54:56;9.30;;;2.50;;
70924;SDS011;58577;52.410;13.242;2022-09-17T07:57:41;10.27;;;2.85;;
70924;SDS011;58577;52.410;13.242;2022-09-17T08:00:27;14.80;;;3.72;;
70924;SDS011;58577;52.410;13.242;2022-09-17T08:03:13;9.70;;;2.92;;
70924;SDS011;58577;52.410;13.242;2022-09-17T08:06:03;10.40;;;2.60;;
70924;SDS011;58577;52.410;13.242;2022-09-17T08:08:56;11.13;;;3.05;;
70924;SDS011;58577;52.410;13.242;2022-09-17T08:11:44;10.90;;;2.75;;
70924;SDS011;58577;52.410;13.242;2022-09-17T08:14:30;10.23;;;2.83;;
70924;SDS011;58577;52.410;13.242;2022-09-17T08:17:15;11.80;;;3.10;;
70924;SDS011;58577;52.410;13.242;2022-09-17T08:20:01;12.48;;;2.65;;
70924;SDS011;58577;52.410;13.242;2022-09-17T08:22:47;10.77;;;2.90;;
70924;SDS011;58577;52.410;13.242;2022-09-17T08:25:33;9.88;;;2.67;;
70924;SDS011;58577;52.410;13.242;2022-09-17T08:28:19;12.48;;;3.03;;
70924;SDS011;58577;52.410;13.242;2022-09-17T08:31:06;12.45;;;2.80;;
70924;SDS011;58577;52.410;13.242;2022-09-17T08:33:53;7.85;;;2.50;;
70924;SDS011;58577;52.410;13.242;2022-09-17T08:36:39;11.60;;;3.20;;
70924;SDS011;58577;52.410;13.242;2022-09-17T08:39:24;12.90;;;3.17;;
70924;SDS011;58577;52.410;13.242;2022-09-17T08:45:07;7.80;;;2.25;;
70924;SDS011;58577;52.410;13.242;2022-09-17T08:48:00;9.82;;;2.70;;
70924;SDS011;58577;52.410;13.242;2022-09-17T08:50:49;8.05;;;2.50;;
70924;SDS011;58577;52.410;13.242;2022-09-17T08:56:46;11.75;;;2.95;;
70924;SDS011;58577;52.410;13.242;2022-09-17T08:59:44;9.68;;;2.40;;
70924;SDS011;58577;52.410;13.242;2022-09-17T09:05:38;7.38;;;2.03;;
70924;SDS011;58577;52.410;13.242;2022-09-17T09:08:32;12.48;;;2.78;;
70924;SDS011;58577;52.410;13.242;2022-09-17T09:11:32;9.90;;;2.58;;
70924;SDS011;58577;52.410;13.242;2022-09-17T09:14:23;11.98;;;2.90;;
70924;SDS011;58577;52.410;13.242;2022-09-17T09:17:14;6.88;;;2.25;;
70924;SDS011;58577;52.410;13.242;2022-09-17T09:20:03;8.70;;;2.20;;
70924;SDS011;58577;52.410;13.242;2022-09-17T09:22:50;8.15;;;2.95;;
70924;SDS011;58577;52.410;13.242;2022-09-17T09:25:40;10.23;;;2.78;;
70924;SDS011;58577;52.410;13.242;2022-09-17T09:31:52;6.80;;;2.35;;
70924;SDS011;58577;52.410;13.242;2022-09-17T09:37:33;9.27;;;2.92;;
70924;SDS011;58577;52.410;13.242;2022-09-17T09:43:45;5.97;;;1.85;;
70924;SDS011;58577;52.410;13.242;2022-09-17T09:59:25;12.73;;;2.40;;
70924;SDS011;58577;52.410;13.242;2022-09-17T10:02:11;8.88;;;2.78;;
70924;SDS011;58577;52.410;13.242;2022-09-17T10:05:06;7.88;;;2.08;;
70924;SDS011;58577;52.410;13.242;2022-09-17T10:07:53;7.60;;;2.20;;
70924;SDS011;58577;52.410;13.242;2022-09-17T10:10:58;6.13;;;2.00;;
70924;SDS011;58577;52.410;13.242;2022-09-17T10:13:46;10.55;;;3.00;;
70924;SDS011;58577;52.410;13.242;2022-09-17T10:16:31;8.65;;;2.10;;
70924;SDS011;58577;52.410;13.242;2022-09-17T10:19:20;4.68;;;1.55;;
70924;SDS011;58577;52.410;13.242;2022-09-17T10:25:19;9.15;;;2.00;;
70924;SDS011;58577;52.410;13.242;2022-09-17T10:31:15;6.03;;;1.95;;
70924;SDS011;58577;52.410;13.242;2022-09-17T10:34:01;12.20;;;2.08;;
70924;SDS011;58577;52.410;13.242;2022-09-17T10:36:47;10.20;;;2.00;;
70924;SDS011;58577;52.410;13.242;2022-09-17T10:39:37;7.28;;;1.80;;
70924;SDS011;58577;52.410;13.242;2022-09-17T10:42:32;8.55;;;1.60;;
70924;SDS011;58577;52.410;13.242;2022-09-17T10:45:22;9.32;;;2.08;;
70924;SDS011;58577;52.410;13.242;2022-09-17T10:48:16;9.25;;;2.08;;
70924;SDS011;58577;52.410;13.242;2022-09-17T10:51:06;5.22;;;1.98;;
70924;SDS011;58577;52.410;13.242;2022-09-17T10:53:59;5.90;;;1.90;;
70924;SDS011;58577;52.410;13.242;2022-09-17T10:56:58;6.43;;;1.83;;
70924;SDS011;58577;52.410;13.242;2022-09-17T11:12:31;7.32;;;2.67;;
70924;SDS011;58577;52.410;13.242;2022-09-17T11:15:41;6.72;;;2.63;;
70924;SDS011;58577;52.410;13.242;2022-09-17T11:18:34;7.97;;;2.33;;
70924;SDS011;58577;52.410;13.242;2022-09-17T11:21:41;10.40;;;2.45;;
70924;SDS011;58577;52.410;13.242;2022-09-17T11:37:31;7.00;;;2.60;;
70924;SDS011;58577;52.410;13.242;2022-09-17T11:40:24;5.40;;;2.42;;
70924;SDS011;58577;52.410;13.242;2022-09-17T11:43:18;9.75;;;2.40;;
70924;SDS011;58577;52.410;13.242;2022-09-17T11:52:19;8.05;;;1.60;;
70924;SDS011;58577;52.410;13.242;2022-09-17T11:55:15;6.53;;;1.60;;
70924;SDS011;58577;52.410;13.242;2022-09-17T11:58:31;5.82;;;1.80;;
70924;SDS011;58577;52.410;13.242;2022-09-17T12:04:40;3.78;;;1.65;;
70924;SDS011;58577;52.410;13.242;2022-09-17T12:13:44;10.20;;;2.30;;
70924;SDS011;58577;52.410;13.242;2022-09-17T12:16:37;8.15;;;2.40;;
70924;SDS011;58577;52.410;13.242;2022-09-17T12:19:32;6.25;;;1.77;;
70924;SDS011;58577;52.410;13.242;2022-09-17T12:22:24;4.78;;;1.42;;
70924;SDS011;58577;52.410;13.242;2022-09-17T12:25:15;3.50;;;1.52;;
70924;SDS011;58577;52.410;13.242;2022-09-17T12:28:06;5.65;;;1.45;;
70924;SDS011;58577;52.410;13.242;2022-09-17T12:34:30;6.63;;;1.55;;
70924;SDS011;58577;52.410;13.242;2022-09-17T12:40:50;5.30;;;1.60;;
70924;SDS011;58577;52.410;13.242;2022-09-17T12:43:54;6.07;;;1.90;;
70924;SDS011;58577;52.410;13.242;2022-09-17T12:47:03;7.15;;;1.60;;
70924;SDS011;58577;52.410;13.242;2022-09-17T12:50:02;9.75;;;1.70;;
70924;SDS011;58577;52.410;13.242;2022-09-17T12:53:01;8.05;;;1.83;;
70924;SDS011;58577;52.410;13.242;2022-09-17T12:56:09;4.82;;;1.52;;
70924;SDS011;58577;52.410;13.242;2022-09-17T12:59:09;3.42;;;1.23;;
70924;SDS011;58577;52.410;13.242;2022-09-17T13:02:07;2.47;;;1.40;;
70924;SDS011;58577;52.410;13.242;2022-09-17T13:22:58;2.08;;;1.20;;
70924;SDS011;58577;52.410;13.242;2022-09-17T13:25:48;8.82;;;2.10;;
70924;SDS011;58577;52.410;13.242;2022-09-17T13:28:45;3.83;;;1.80;;
70924;SDS011;58577;52.410;13.242;2022-09-17T13:37:16;5.15;;;1.55;;
70924;SDS011;58577;52.410;13.242;2022-09-17T13:40:03;6.68;;;1.80;;
70924;SDS011;58577;52.410;13.242;2022-09-17T13:48:46;5.93;;;1.67;;
70924;SDS011;58577;52.410;13.242;2022-09-17T13:54:23;8.25;;;2.80;;
70924;SDS011;58577;52.410;13.242;2022-09-17T13:57:21;7.95;;;2.00;;
70924;SDS011;58577;52.410;13.242;2022-09-17T14:00:29;4.97;;;1.85;;
70924;SDS011;58577;52.410;13.242;2022-09-17T14:09:31;6.10;;;2.17;;
70924;SDS011;58577;52.410;13.242;2022-09-17T14:21:14;9.05;;;2.03;;
70924;SDS011;58577;52.410;13.242;2022-09-17T14:24:18;7.35;;;2.10;;
70924;SDS011;58577;52.410;13.242;2022-09-17T14:27:13;7.15;;;2.08;;
70924;SDS011;58577;52.410;13.242;2022-09-17T14:30:29;4.78;;;1.60;;
70924;SDS011;58577;52.410;13.242;2022-09-17T14:33:16;3.67;;;1.30;;
70924;SDS011;58577;52.410;13.242;2022-09-17T14:38:55;6.20;;;1.50;;
70924;SDS011;58577;52.410;13.242;2022-09-17T14:41:42;2.80;;;1.25;;
70924;SDS011;58577;52.410;13.242;2022-09-17T14:44:29;5.75;;;1.40;;
70924;SDS011;58577;52.410;13.242;2022-09-17T14:47:18;4.22;;;1.52;;
70924;SDS011;58577;52.410;13.242;2022-09-17T14:53:07;3.90;;;1.08;;
70924;SDS011;58577;52.410;13.242;2022-09-17T14:56:00;1.45;;;1.10;;
70924;SDS011;58577;52.410;13.242;2022-09-17T14:58:52;2.65;;;1.38;;
70924;SDS011;58577;52.410;13.242;2022-09-17T15:01:39;4.82;;;1.45;;
70924;SDS011;58577;52.410;13.242;2022-09-17T15:04:32;4.47;;;1.50;;
70924;SDS011;58577;52.410;13.242;2022-09-17T15:07:19;3.05;;;1.25;;
70924;SDS011;58577;52.410;13.242;2022-09-17T15:10:06;1.15;;;1.05;;
70924;SDS011;58577;52.410;13.242;2022-09-17T15:12:54;1.10;;;0.82;;
70924;SDS011;58577;52.410;13.242;2022-09-17T15:15:44;1.58;;;1.48;;
70924;SDS011;58577;52.410;13.242;2022-09-17T15:18:41;7.60;;;1.30;;
70924;SDS011;58577;52.410;13.242;2022-09-17T15:27:23;2.70;;;1.17;;
70924;SDS011;58577;52.410;13.242;2022-09-17T15:30:14;1.73;;;0.55;;
70924;SDS011;58577;52.410;13.242;2022-09-17T15:33:08;1.08;;;0.75;;
70924;SDS011;58577;52.410;13.242;2022-09-17T15:42:28;4.68;;;1.17;;
70924;SDS011;58577;52.410;13.242;2022-09-17T15:45:19;2.10;;;0.57;;
70924;SDS011;58577;52.410;13.242;2022-09-17T15:51:26;1.98;;;0.50;;
70924;SDS011;58577;52.410;13.242;2022-09-17T15:54:29;0.30;;;0.30;;
70924;SDS011;58577;52.410;13.242;2022-09-17T15:57:16;1.55;;;0.60;;
70924;SDS011;58577;52.410;13.242;2022-09-17T16:00:07;0.60;;;0.60;;
70924;SDS011;58577;52.410;13.242;2022-09-17T16:02:57;1.08;;;0.77;;
70924;SDS011;58577;52.410;13.242;2022-09-17T16:09:02;4.28;;;0.85;;
70924;SDS011;58577;52.410;13.242;2022-09-17T16:11:48;2.03;;;1.13;;
70924;SDS011;58577;52.410;13.242;2022-09-17T16:14:34;4.68;;;0.95;;
70924;SDS011;58577;52.410;13.242;2022-09-17T16:20:21;2.53;;;1.13;;
70924;SDS011;58577;52.410;13.242;2022-09-17T16:23:08;4.05;;;0.73;;
70924;SDS011;58577;52.410;13.242;2022-09-17T16:25:54;1.52;;;0.98;;
70924;SDS011;58577;52.410;13.242;2022-09-17T16:28:42;2.22;;;0.90;;
70924;SDS011;58577;52.410;13.242;2022-09-17T16:31:30;1.40;;;0.80;;
70924;SDS011;58577;52.410;13.242;2022-09-17T16:34:17;3.30;;;1.20;;
70924;SDS011;58577;52.410;13.242;2022-09-17T16:37:03;2.40;;;1.05;;
70924;SDS011;58577;52.410;13.242;2022-09-17T16:39:49;3.35;;;1.00;;
70924;SDS011;58577;52.410;13.242;2022-09-17T16:42:35;3.03;;;1.30;;
70924;SDS011;58577;52.410;13.242;2022-09-17T16:45:21;2.13;;;0.80;;
70924;SDS011;58577;52.410;13.242;2022-09-17T16:48:07;1.77;;;1.05;;
70924;SDS011;58577;52.410;13.242;2022-09-17T16:50:53;2.55;;;1.23;;
70924;SDS011;58577;52.410;13.242;2022-09-17T16:53:39;0.98;;;0.88;;
70924;SDS011;58577;52.410;13.242;2022-09-17T16:56:25;3.08;;;1.13;;
70924;SDS011;58577;52.410;13.242;2022-09-17T16:59:11;2.60;;;0.95;;
70924;SDS011;58577;52.410;13.242;2022-09-17T17:01:56;2.22;;;1.20;;
70924;SDS011;58577;52.410;13.242;2022-09-17T17:04:42;3.28;;;1.08;;
70924;SDS011;58577;52.410;13.242;2022-09-17T17:07:28;5.10;;;1.15;;
70924;SDS011;58577;52.410;13.242;2022-09-17T17:10:16;2.22;;;1.20;;
70924;SDS011;58577;52.410;13.242;2022-09-17T17:13:02;3.88;;;1.88;;
70924;SDS011;58577;52.410;13.242;2022-09-17T17:15:49;3.88;;;1.67;;
70924;SDS011;58577;52.410;13.242;2022-09-17T17:18:34;2.92;;;1.40;;
70924;SDS011;58577;52.410;13.242;2022-09-17T17:21:20;3.67;;;1.67;;
70924;SDS011;58577;52.410;13.242;2022-09-17T17:24:06;1.58;;;1.48;;
70924;SDS011;58577;52.410;13.242;2022-09-17T17:26:52;2.63;;;1.70;;
70924;SDS011;58577;52.410;13.242;2022-09-17T17:29:38;2.42;;;1.23;;
70924;SDS011;58577;52.410;13.242;2022-09-17T17:32:24;1.48;;;1.20;;
70924;SDS011;58577;52.410;13.242;2022-09-17T17:35:09;3.63;;;1.58;;
70924;SDS011;58577;52.410;13.242;2022-09-17T17:37:55;3.00;;;1.10;;
70924;SDS011;58577;52.410;13.242;2022-09-17T17:40:41;2.78;;;1.08;;
70924;SDS011;58577;52.410;13.242;2022-09-17T17:43:27;4.88;;;1.98;;
70924;SDS011;58577;52.410;13.242;2022-09-17T17:46:12;2.40;;;1.45;;
70924;SDS011;58577;52.410;13.242;2022-09-17T17:49:00;1.55;;;1.38;;
70924;SDS011;58577;52.410;13.242;2022-09-17T17:51:46;4.88;;;1.65;;
70924;SDS011;58577;52.410;13.242;2022-09-17T17:54:33;4.68;;;1.77;;
70924;SDS011;58577;52.410;13.242;2022-09-17T17:57:18;6.53;;;2.72;;
70924;SDS011;58577;52.410;13.242;2022-09-17T18:00:04;5.30;;;2.38;;
70924;SDS011;58577;52.410;13.242;2022-09-17T18:02:57;3.28;;;1.95;;
70924;SDS011;58577;52.410;13.242;2022-09-17T18:05:43;5.10;;;2.17;;
70924;SDS011;58577;52.410;13.242;2022-09-17T18:08:28;4.03;;;2.00;;
70924;SDS011;58577;52.410;13.242;2022-09-17T18:11:14;2.88;;;1.67;;
70924;SDS011;58577;52.410;13.242;2022-09-17T18:14:00;1.92;;;1.75;;
70924;SDS011;58577;52.410;13.242;2022-09-17T18:16:48;4.28;;;1.77;;
70924;SDS011;58577;52.410;13.242;2022-09-17T18:19:33;5.53;;;1.98;;
70924;SDS011;58577;52.410;13.242;2022-09-17T18:22:19;7.85;;;1.90;;
70924;SDS011;58577;52.410;13.242;2022-09-17T18:25:05;3.80;;;1.90;;
70924;SDS011;58577;52.410;13.242;2022-09-17T18:27:51;4.97;;;2.53;;
70924;SDS011;58577;52.410;13.242;2022-09-17T18:30:37;13.38;;;4.65;;
70924;SDS011;58577;52.410;13.242;2022-09-17T18:33:24;18.75;;;9.18;;
70924;SDS011;58577;52.410;13.242;2022-09-17T18:36:11;7.25;;;3.47;;
70924;SDS011;58577;52.410;13.242;2022-09-17T18:38:58;4.10;;;2.05;;
70924;SDS011;58577;52.410;13.242;2022-09-17T18:41:49;6.38;;;2.70;;
70924;SDS011;58577;52.410;13.242;2022-09-17T18:44:35;5.38;;;2.20;;
70924;SDS011;58577;52.410;13.242;2022-09-17T18:47:20;8.18;;;1.98;;
70924;SDS011;58577;52.410;13.242;2022-09-17T18:50:06;3.28;;;2.00;;
70924;SDS011;58577;52.410;13.242;2022-09-17T18:52:52;5.00;;;2.40;;
70924;SDS011;58577;52.410;13.242;2022-09-17T18:55:38;5.40;;;2.72;;
70924;SDS011;58577;52.410;13.242;2022-09-17T18:58:24;4.80;;;2.85;;
70924;SDS011;58577;52.410;13.242;2022-09-17T19:01:10;7.90;;;3.00;;
70924;SDS011;58577;52.410;13.242;2022-09-17T19:03:57;7.07;;;2.97;;
70924;SDS011;58577;52.410;13.242;2022-09-17T19:06:43;5.72;;;3.20;;
70924;SDS011;58577;52.410;13.242;2022-09-17T19:09:29;3.95;;;2.80;;
70924;SDS011;58577;52.410;13.242;2022-09-17T19:12:15;4.97;;;2.45;;
70924;SDS011;58577;52.410;13.242;2022-09-17T19:15:01;6.15;;;3.10;;
70924;SDS011;58577;52.410;13.242;2022-09-17T19:17:47;6.15;;;3.30;;
70924;SDS011;58577;52.410;13.242;2022-09-17T19:20:32;6.53;;;2.67;;
70924;SDS011;58577;52.410;13.242;2022-09-17T19:23:21;4.07;;;2.92;;
70924;SDS011;58577;52.410;13.242;2022-09-17T19:26:07;4.15;;;2.70;;
70924;SDS011;58577;52.410;13.242;2022-09-17T19:28:56;7.05;;;3.63;;
70924;SDS011;58577;52.410;13.242;2022-09-17T19:31:44;6.45;;;4.07;;
70924;SDS011;58577;52.410;13.242;2022-09-17T19:34:30;6.45;;;3.78;;
70924;SDS011;58577;52.410;13.242;2022-09-17T19:37:15;4.95;;;3.30;;
70924;SDS011;58577;52.410;13.242;2022-09-17T19:40:02;4.13;;;2.78;;
70924;SDS011;58577;52.410;13.242;2022-09-17T19:42:52;5.50;;;2.88;;
70924;SDS011;58577;52.410;13.242;2022-09-17T19:45:39;5.93;;;2.97;;
70924;SDS011;58577;52.410;13.242;2022-09-17T19:48:25;5.20;;;2.90;;
70924;SDS011;58577;52.410;13.242;2022-09-17T19:51:15;6.88;;;3.20;;
70924;SDS011;58577;52.410;13.242;2022-09-17T19:54:01;8.02;;;3.50;;
70924;SDS011;58577;52.410;13.242;2022-09-17T19:56:48;6.15;;;3.03;;